sensor_id;sensor_type;location;lat;lon;timestamp;pressure;altitude;pressure_sealevel;temperature;humidity
45872;BME280;32333;55.844;-3.210;2023-04-20T00:01:52;101199.16;;;4.81;100.00
45872;BME280;32333;55.844;-3.210;2023-04-20T00:04:19;101191.68;;;4.41;100.00
45872;BME280;32333;55.844;-3.210;2023-04-20T00:06:47;101199.69;;;3.92;100.00
45872;BME280;32333;55.844;-3.210;2023-04-20T00:09:14;101189.49;;;5.16;100.00
45872;BME280;32333;55.844;-3.210;2023-04-20T00:11:42;101185.01;;;5.27;100.00
45872;BME280;32333;55.844;-3.210;2023-04-20T00:14:36;101179.48;;;5.54;100.00
45872;BME280;32333;55.844;-3.210;2023-04-20T00:17:03;101175.40;;;4.62;100.00
45872;BME280;32333;55.844;-3.210;2023-04-20T00:19:30;101173.30;;;4.74;100.00
45872;BME280;32333;55.844;-3.210;2023-04-20T00:21:58;101173.25;;;5.12;100.00
45872;BME280;32333;55.844;-3.210;2023-04-20T00:24:26;101169.01;;;5.07;100.00
45872;BME280;32333;55.844;-3.210;2023-04-20T00:26:54;101169.35;;;5.30;100.00
45872;BME280;32333;55.844;-3.210;2023-04-20T00:29:21;101170.70;;;3.92;100.00
45872;BME280;32333;55.844;-3.210;2023-04-20T00:31:48;101167.80;;;4.90;100.00
45872;BME280;32333;55.844;-3.210;2023-04-20T00:34:16;101169.54;;;4.16;100.00
45872;BME280;32333;55.844;-3.210;2023-04-20T00:36:43;101169.20;;;4.41;100.00
45872;BME280;32333;55.844;-3.210;2023-04-20T00:39:11;101168.10;;;3.42;100.00
45872;BME280;32333;55.844;-3.210;2023-04-20T00:41:39;101165.15;;;4.67;100.00
45872;BME280;32333;55.844;-3.210;2023-04-20T00:44:36;101160.06;;;5.61;100.00
45872;BME280;32333;55.844;-3.210;2023-04-20T00:47:03;101160.45;;;3.84;100.00
45872;BME280;32333;55.844;-3.210;2023-04-20T00:49:32;101158.66;;;4.86;100.00
45872;BME280;32333;55.844;-3.210;2023-04-20T00:51:59;101160.00;;;4.64;100.00
45872;BME280;32333;55.844;-3.210;2023-04-20T00:54:28;101158.24;;;4.79;100.00
45872;BME280;32333;55.844;-3.210;2023-04-20T00:56:57;101156.83;;;4.40;100.00
45872;BME280;32333;55.844;-3.210;2023-04-20T00:59:25;101148.96;;;4.26;100.00
45872;BME280;32333;55.844;-3.210;2023-04-20T01:01:53;101153.30;;;3.64;100.00
45872;BME280;32333;55.844;-3.210;2023-04-20T01:04:21;101145.21;;;4.45;100.00
45872;BME280;32333;55.844;-3.210;2023-04-20T01:06:49;101142.27;;;4.35;100.00
45872;BME280;32333;55.844;-3.210;2023-04-20T01:09:16;101140.60;;;4.46;100.00
45872;BME280;32333;55.844;-3.210;2023-04-20T01:11:43;101142.41;;;4.85;100.00
45872;BME280;32333;55.844;-3.210;2023-04-20T01:14:35;101136.35;;;5.07;100.00
45872;BME280;32333;55.844;-3.210;2023-04-20T01:17:03;101133.07;;;5.21;100.00
45872;BME280;32333;55.844;-3.210;2023-04-20T01:19:31;101130.01;;;4.66;100.00
45872;BME280;32333;55.844;-3.210;2023-04-20T01:22:00;101130.63;;;4.52;100.00
45872;BME280;32333;55.844;-3.210;2023-04-20T01:24:27;101132.81;;;5.46;100.00
45872;BME280;32333;55.844;-3.210;2023-04-20T01:26:55;101128.95;;;5.01;100.00
45872;BME280;32333;55.844;-3.210;2023-04-20T01:29:23;101122.90;;;6.70;100.00
45872;BME280;32333;55.844;-3.210;2023-04-20T01:31:50;101117.42;;;6.20;100.00
45872;BME280;32333;55.844;-3.210;2023-04-20T01:34:18;101116.68;;;6.46;100.00
45872;BME280;32333;55.844;-3.210;2023-04-20T01:36:45;101110.55;;;7.15;100.00
45872;BME280;32333;55.844;-3.210;2023-04-20T01:39:13;101110.95;;;5.39;100.00
45872;BME280;32333;55.844;-3.210;2023-04-20T01:41:40;101111.23;;;5.72;100.00
45872;BME280;32333;55.844;-3.210;2023-04-20T01:44:36;101107.51;;;5.17;100.00
45872;BME280;32333;55.844;-3.210;2023-04-20T01:47:03;101103.38;;;5.02;100.00
45872;BME280;32333;55.844;-3.210;2023-04-20T01:49:31;101095.48;;;5.41;100.00
45872;BME280;32333;55.844;-3.210;2023-04-20T01:51:59;101097.60;;;4.72;100.00
45872;BME280;32333;55.844;-3.210;2023-04-20T01:54:26;101099.39;;;5.49;100.00
45872;BME280;32333;55.844;-3.210;2023-04-20T01:56:54;101097.08;;;5.35;100.00
45872;BME280;32333;55.844;-3.210;2023-04-20T01:59:21;101093.95;;;5.71;100.00
45872;BME280;32333;55.844;-3.210;2023-04-20T02:01:49;101094.08;;;5.09;100.00
45872;BME280;32333;55.844;-3.210;2023-04-20T02:04:19;101094.88;;;5.86;100.00
45872;BME280;32333;55.844;-3.210;2023-04-20T02:06:46;101088.75;;;5.60;100.00
45872;BME280;32333;55.844;-3.210;2023-04-20T02:09:14;101083.13;;;6.46;100.00
45872;BME280;32333;55.844;-3.210;2023-04-20T02:11:41;101082.49;;;5.62;100.00
45872;BME280;32333;55.844;-3.210;2023-04-20T02:14:35;101082.46;;;5.58;100.00
45872;BME280;32333;55.844;-3.210;2023-04-20T02:17:03;101079.91;;;5.79;100.00
45872;BME280;32333;55.844;-3.210;2023-04-20T02:19:30;101080.51;;;5.27;100.00
45872;BME280;32333;55.844;-3.210;2023-04-20T02:21:57;101077.78;;;5.62;100.00
45872;BME280;32333;55.844;-3.210;2023-04-20T02:24:25;101076.66;;;4.65;100.00
45872;BME280;32333;55.844;-3.210;2023-04-20T02:26:52;101073.08;;;5.22;100.00
45872;BME280;32333;55.844;-3.210;2023-04-20T02:29:20;101071.31;;;4.00;100.00
45872;BME280;32333;55.844;-3.210;2023-04-20T02:31:47;101075.28;;;4.09;100.00
45872;BME280;32333;55.844;-3.210;2023-04-20T02:34:15;101074.24;;;4.32;100.00
45872;BME280;32333;55.844;-3.210;2023-04-20T02:36:42;101072.85;;;4.00;100.00
45872;BME280;32333;55.844;-3.210;2023-04-20T02:39:10;101078.34;;;3.50;100.00
45872;BME280;32333;55.844;-3.210;2023-04-20T02:41:38;101072.63;;;4.56;100.00
45872;BME280;32333;55.844;-3.210;2023-04-20T02:44:35;101071.05;;;4.75;100.00
45872;BME280;32333;55.844;-3.210;2023-04-20T02:47:03;101071.60;;;4.77;100.00
45872;BME280;32333;55.844;-3.210;2023-04-20T02:49:30;101063.91;;;4.09;100.00
45872;BME280;32333;55.844;-3.210;2023-04-20T02:51:58;101064.34;;;3.66;100.00
45872;BME280;32333;55.844;-3.210;2023-04-20T02:54:25;101067.95;;;3.82;100.00
45872;BME280;32333;55.844;-3.210;2023-04-20T02:56:53;101072.93;;;3.51;100.00
45872;BME280;32333;55.844;-3.210;2023-04-20T02:59:20;101074.59;;;3.12;100.00
45872;BME280;32333;55.844;-3.210;2023-04-20T03:01:49;101077.04;;;3.66;100.00
45872;BME280;32333;55.844;-3.210;2023-04-20T03:04:16;101078.37;;;2.35;100.00
45872;BME280;32333;55.844;-3.210;2023-04-20T03:06:44;101076.54;;;3.09;100.00
45872;BME280;32333;55.844;-3.210;2023-04-20T03:09:11;101070.01;;;2.34;100.00
45872;BME280;32333;55.844;-3.210;2023-04-20T03:11:39;101071.04;;;3.59;100.00
45872;BME280;32333;55.844;-3.210;2023-04-20T03:14:36;101071.46;;;3.10;100.00
45872;BME280;32333;55.844;-3.210;2023-04-20T03:17:03;101066.24;;;3.91;100.00
45872;BME280;32333;55.844;-3.210;2023-04-20T03:19:31;101072.49;;;3.34;100.00
45872;BME280;32333;55.844;-3.210;2023-04-20T03:21:59;101067.15;;;3.93;100.00
45872;BME280;32333;55.844;-3.210;2023-04-20T03:24:27;101062.46;;;3.96;100.00
45872;BME280;32333;55.844;-3.210;2023-04-20T03:26:54;101058.21;;;5.03;100.00
45872;BME280;32333;55.844;-3.210;2023-04-20T03:29:22;101060.17;;;4.48;100.00
45872;BME280;32333;55.844;-3.210;2023-04-20T03:31:49;101062.38;;;4.42;100.00
45872;BME280;32333;55.844;-3.210;2023-04-20T03:34:17;101057.41;;;3.95;100.00
45872;BME280;32333;55.844;-3.210;2023-04-20T03:36:45;101060.99;;;4.21;100.00
45872;BME280;32333;55.844;-3.210;2023-04-20T03:39:14;101069.69;;;3.58;100.00
45872;BME280;32333;55.844;-3.210;2023-04-20T03:41:41;101071.97;;;2.83;100.00
45872;BME280;32333;55.844;-3.210;2023-04-20T03:44:36;101069.77;;;2.47;100.00
45872;BME280;32333;55.844;-3.210;2023-04-20T03:47:04;101068.32;;;3.28;100.00
45872;BME280;32333;55.844;-3.210;2023-04-20T03:49:31;101058.42;;;3.87;100.00
45872;BME280;32333;55.844;-3.210;2023-04-20T03:51:58;101056.94;;;4.02;100.00
45872;BME280;32333;55.844;-3.210;2023-04-20T03:54:26;101063.11;;;3.07;100.00
45872;BME280;32333;55.844;-3.210;2023-04-20T03:56:53;101066.32;;;2.98;100.00
45872;BME280;32333;55.844;-3.210;2023-04-20T03:59:20;101057.34;;;4.03;100.00
45872;BME280;32333;55.844;-3.210;2023-04-20T04:01:49;101058.69;;;3.26;100.00
45872;BME280;32333;55.844;-3.210;2023-04-20T04:04:16;101056.44;;;4.13;100.00
45872;BME280;32333;55.844;-3.210;2023-04-20T04:06:44;101058.15;;;2.94;100.00
45872;BME280;32333;55.844;-3.210;2023-04-20T04:09:11;101061.39;;;3.09;100.00
45872;BME280;32333;55.844;-3.210;2023-04-20T04:11:40;101057.37;;;2.98;100.00
45872;BME280;32333;55.844;-3.210;2023-04-20T04:14:36;101057.66;;;3.45;100.00
45872;BME280;32333;55.844;-3.210;2023-04-20T04:17:03;101044.17;;;3.56;100.00
45872;BME280;32333;55.844;-3.210;2023-04-20T04:19:31;101048.10;;;2.80;100.00
45872;BME280;32333;55.844;-3.210;2023-04-20T04:21:59;101055.86;;;2.81;100.00
45872;BME280;32333;55.844;-3.210;2023-04-20T04:24:27;101050.19;;;1.83;100.00
45872;BME280;32333;55.844;-3.210;2023-04-20T04:26:55;101049.70;;;3.53;100.00
45872;BME280;32333;55.844;-3.210;2023-04-20T04:29:24;101046.04;;;3.80;100.00
45872;BME280;32333;55.844;-3.210;2023-04-20T04:31:51;101042.85;;;3.54;100.00
45872;BME280;32333;55.844;-3.210;2023-04-20T04:34:19;101043.14;;;4.77;100.00
45872;BME280;32333;55.844;-3.210;2023-04-20T04:36:46;101042.88;;;4.00;100.00
45872;BME280;32333;55.844;-3.210;2023-04-20T04:39:14;101041.37;;;4.25;100.00
45872;BME280;32333;55.844;-3.210;2023-04-20T04:41:41;101037.73;;;4.20;100.00
45872;BME280;32333;55.844;-3.210;2023-04-20T04:44:36;101037.89;;;3.98;100.00
45872;BME280;32333;55.844;-3.210;2023-04-20T04:47:03;101037.57;;;4.39;100.00
45872;BME280;32333;55.844;-3.210;2023-04-20T04:49:31;101039.36;;;3.97;100.00
45872;BME280;32333;55.844;-3.210;2023-04-20T04:51:59;101041.94;;;3.76;100.00
45872;BME280;32333;55.844;-3.210;2023-04-20T04:54:27;101047.61;;;3.18;100.00
45872;BME280;32333;55.844;-3.210;2023-04-20T04:56:54;101047.39;;;3.53;100.00
45872;BME280;32333;55.844;-3.210;2023-04-20T04:59:22;101050.15;;;3.35;100.00
45872;BME280;32333;55.844;-3.210;2023-04-20T05:01:49;101054.24;;;2.42;100.00
45872;BME280;32333;55.844;-3.210;2023-04-20T05:04:17;101050.18;;;3.68;100.00
45872;BME280;32333;55.844;-3.210;2023-04-20T05:06:44;101058.63;;;3.00;100.00
45872;BME280;32333;55.844;-3.210;2023-04-20T05:09:13;101048.43;;;4.41;100.00
45872;BME280;32333;55.844;-3.210;2023-04-20T05:11:40;101051.09;;;3.65;100.00
45872;BME280;32333;55.844;-3.210;2023-04-20T05:14:36;101047.53;;;4.47;100.00
45872;BME280;32333;55.844;-3.210;2023-04-20T05:17:03;101047.11;;;4.15;100.00
45872;BME280;32333;55.844;-3.210;2023-04-20T05:19:31;101051.02;;;4.13;100.00
45872;BME280;32333;55.844;-3.210;2023-04-20T05:21:58;101049.34;;;4.41;100.00
45872;BME280;32333;55.844;-3.210;2023-04-20T05:24:26;101048.99;;;4.75;100.00
45872;BME280;32333;55.844;-3.210;2023-04-20T05:26:54;101052.61;;;4.91;100.00
45872;BME280;32333;55.844;-3.210;2023-04-20T05:29:21;101054.57;;;4.34;100.00
45872;BME280;32333;55.844;-3.210;2023-04-20T05:31:50;101067.77;;;3.02;100.00
45872;BME280;32333;55.844;-3.210;2023-04-20T05:34:17;101065.31;;;3.06;100.00
45872;BME280;32333;55.844;-3.210;2023-04-20T05:36:46;101059.50;;;4.17;100.00
45872;BME280;32333;55.844;-3.210;2023-04-20T05:39:14;101061.96;;;3.53;100.00
45872;BME280;32333;55.844;-3.210;2023-04-20T05:41:41;101062.15;;;3.66;100.00
45872;BME280;32333;55.844;-3.210;2023-04-20T05:44:35;101060.47;;;3.63;100.00
45872;BME280;32333;55.844;-3.210;2023-04-20T05:47:03;101059.29;;;4.28;100.00
45872;BME280;32333;55.844;-3.210;2023-04-20T05:49:30;101059.32;;;4.80;100.00
45872;BME280;32333;55.844;-3.210;2023-04-20T05:51:59;101056.79;;;4.63;100.00
45872;BME280;32333;55.844;-3.210;2023-04-20T05:54:26;101063.82;;;3.60;100.00
45872;BME280;32333;55.844;-3.210;2023-04-20T05:56:53;101057.61;;;4.49;100.00
45872;BME280;32333;55.844;-3.210;2023-04-20T05:59:21;101057.06;;;5.28;100.00
45872;BME280;32333;55.844;-3.210;2023-04-20T06:01:48;101053.42;;;5.12;100.00
45872;BME280;32333;55.844;-3.210;2023-04-20T06:04:16;101059.63;;;3.63;100.00
45872;BME280;32333;55.844;-3.210;2023-04-20T06:06:43;101055.20;;;3.75;100.00
45872;BME280;32333;55.844;-3.210;2023-04-20T06:09:12;101055.61;;;4.34;100.00
45872;BME280;32333;55.844;-3.210;2023-04-20T06:11:39;101054.65;;;3.95;100.00
45872;BME280;32333;55.844;-3.210;2023-04-20T06:14:36;101058.65;;;5.15;100.00
45872;BME280;32333;55.844;-3.210;2023-04-20T06:17:04;101055.55;;;4.25;100.00
45872;BME280;32333;55.844;-3.210;2023-04-20T06:19:31;101054.14;;;4.35;100.00
45872;BME280;32333;55.844;-3.210;2023-04-20T06:22:00;101053.21;;;5.18;100.00
45872;BME280;32333;55.844;-3.210;2023-04-20T06:24:31;101049.38;;;3.76;100.00
45872;BME280;32333;55.844;-3.210;2023-04-20T06:26:59;101052.96;;;4.53;100.00
45872;BME280;32333;55.844;-3.210;2023-04-20T06:29:27;101050.10;;;4.76;100.00
45872;BME280;32333;55.844;-3.210;2023-04-20T06:31:54;101053.22;;;4.54;100.00
45872;BME280;32333;55.844;-3.210;2023-04-20T06:34:23;101051.95;;;5.13;100.00
45872;BME280;32333;55.844;-3.210;2023-04-20T06:36:50;101052.04;;;4.70;100.00
45872;BME280;32333;55.844;-3.210;2023-04-20T06:39:18;101049.79;;;5.37;100.00
45872;BME280;32333;55.844;-3.210;2023-04-20T06:41:46;101051.91;;;5.36;100.00
45872;BME280;32333;55.844;-3.210;2023-04-20T06:44:36;101049.48;;;5.28;100.00
45872;BME280;32333;55.844;-3.210;2023-04-20T06:47:04;101045.36;;;6.04;100.00
45872;BME280;32333;55.844;-3.210;2023-04-20T06:49:31;101049.08;;;5.64;100.00
45872;BME280;32333;55.844;-3.210;2023-04-20T06:52:00;101049.17;;;4.06;100.00
45872;BME280;32333;55.844;-3.210;2023-04-20T06:54:28;101049.95;;;4.11;100.00
45872;BME280;32333;55.844;-3.210;2023-04-20T06:56:55;101043.46;;;5.00;100.00
45872;BME280;32333;55.844;-3.210;2023-04-20T06:59:23;101046.21;;;4.07;100.00
45872;BME280;32333;55.844;-3.210;2023-04-20T07:01:50;101051.74;;;4.54;100.00
45872;BME280;32333;55.844;-3.210;2023-04-20T07:04:18;101055.44;;;4.58;100.00
45872;BME280;32333;55.844;-3.210;2023-04-20T07:06:45;101055.59;;;4.54;100.00
45872;BME280;32333;55.844;-3.210;2023-04-20T07:09:14;101048.94;;;3.90;100.00
45872;BME280;32333;55.844;-3.210;2023-04-20T07:11:42;101045.71;;;5.43;100.00
45872;BME280;32333;55.844;-3.210;2023-04-20T07:14:37;101042.64;;;3.91;100.00
45872;BME280;32333;55.844;-3.210;2023-04-20T07:17:04;101045.79;;;4.10;100.00
45872;BME280;32333;55.844;-3.210;2023-04-20T07:19:32;101049.21;;;3.37;100.00
45872;BME280;32333;55.844;-3.210;2023-04-20T07:21:59;101048.67;;;4.43;100.00
45872;BME280;32333;55.844;-3.210;2023-04-20T07:24:27;101050.66;;;5.02;100.00
45872;BME280;32333;55.844;-3.210;2023-04-20T07:26:54;101051.31;;;4.07;100.00
45872;BME280;32333;55.844;-3.210;2023-04-20T07:29:21;101055.90;;;4.18;100.00
45872;BME280;32333;55.844;-3.210;2023-04-20T07:31:48;101055.61;;;3.72;100.00
45872;BME280;32333;55.844;-3.210;2023-04-20T07:34:16;101060.21;;;4.10;100.00
45872;BME280;32333;55.844;-3.210;2023-04-20T07:36:43;101056.98;;;4.47;100.00
45872;BME280;32333;55.844;-3.210;2023-04-20T07:39:11;101063.24;;;3.76;100.00
45872;BME280;32333;55.844;-3.210;2023-04-20T07:41:39;101069.90;;;3.98;100.00
45872;BME280;32333;55.844;-3.210;2023-04-20T07:44:36;101067.76;;;4.39;100.00
45872;BME280;32333;55.844;-3.210;2023-04-20T07:47:03;101071.01;;;3.90;100.00
45872;BME280;32333;55.844;-3.210;2023-04-20T07:49:35;101063.03;;;4.14;100.00
45872;BME280;32333;55.844;-3.210;2023-04-20T07:52:03;101064.97;;;4.70;100.00
45872;BME280;32333;55.844;-3.210;2023-04-20T07:54:30;101060.91;;;3.85;100.00
45872;BME280;32333;55.844;-3.210;2023-04-20T07:56:57;101059.03;;;5.12;100.00
45872;BME280;32333;55.844;-3.210;2023-04-20T07:59:26;101060.06;;;4.64;100.00
45872;BME280;32333;55.844;-3.210;2023-04-20T08:01:57;101060.98;;;5.66;100.00
45872;BME280;32333;55.844;-3.210;2023-04-20T08:04:26;101060.64;;;5.17;100.00
45872;BME280;32333;55.844;-3.210;2023-04-20T08:06:53;101056.33;;;4.20;100.00
45872;BME280;32333;55.844;-3.210;2023-04-20T08:09:21;101065.53;;;3.73;100.00
45872;BME280;32333;55.844;-3.210;2023-04-20T08:11:49;101054.68;;;4.48;100.00
45872;BME280;32333;55.844;-3.210;2023-04-20T08:14:36;101048.95;;;5.10;100.00
45872;BME280;32333;55.844;-3.210;2023-04-20T08:17:03;101050.18;;;5.50;100.00
45872;BME280;32333;55.844;-3.210;2023-04-20T08:19:31;101055.73;;;6.20;100.00
45872;BME280;32333;55.844;-3.210;2023-04-20T08:21:59;101043.87;;;6.41;100.00
45872;BME280;32333;55.844;-3.210;2023-04-20T08:24:27;101045.59;;;6.37;100.00
45872;BME280;32333;55.844;-3.210;2023-04-20T08:26:54;101038.24;;;6.66;100.00
45872;BME280;32333;55.844;-3.210;2023-04-20T08:29:21;101038.22;;;7.76;100.00
45872;BME280;32333;55.844;-3.210;2023-04-20T08:31:49;101030.10;;;8.22;100.00
45872;BME280;32333;55.844;-3.210;2023-04-20T08:34:17;101030.89;;;7.53;100.00
45872;BME280;32333;55.844;-3.210;2023-04-20T08:36:44;101021.25;;;6.75;100.00
45872;BME280;32333;55.844;-3.210;2023-04-20T08:39:20;101023.74;;;7.08;100.00
45872;BME280;32333;55.844;-3.210;2023-04-20T08:41:48;101015.78;;;8.06;100.00
45872;BME280;32333;55.844;-3.210;2023-04-20T08:44:35;101018.19;;;8.40;100.00
45872;BME280;32333;55.844;-3.210;2023-04-20T08:47:02;101015.47;;;8.58;100.00
45872;BME280;32333;55.844;-3.210;2023-04-20T08:49:31;101012.03;;;9.98;100.00
45872;BME280;32333;55.844;-3.210;2023-04-20T08:51:59;101018.09;;;9.24;100.00
45872;BME280;32333;55.844;-3.210;2023-04-20T08:54:26;101007.25;;;7.71;100.00
45872;BME280;32333;55.844;-3.210;2023-04-20T08:56:53;101002.86;;;7.73;100.00
45872;BME280;32333;55.844;-3.210;2023-04-20T08:59:22;101004.97;;;8.56;100.00
45872;BME280;32333;55.844;-3.210;2023-04-20T09:01:49;101000.33;;;9.66;100.00
45872;BME280;32333;55.844;-3.210;2023-04-20T09:04:18;101000.85;;;8.96;100.00
45872;BME280;32333;55.844;-3.210;2023-04-20T09:06:47;100994.85;;;10.40;100.00
45872;BME280;32333;55.844;-3.210;2023-04-20T09:09:15;100995.73;;;9.44;100.00
45872;BME280;32333;55.844;-3.210;2023-04-20T09:11:43;100993.64;;;9.64;100.00
45872;BME280;32333;55.844;-3.210;2023-04-20T09:14:42;100988.82;;;9.81;100.00
45872;BME280;32333;55.844;-3.210;2023-04-20T09:17:10;100984.71;;;8.33;100.00
45872;BME280;32333;55.844;-3.210;2023-04-20T09:19:37;100983.66;;;8.57;100.00
45872;BME280;32333;55.844;-3.210;2023-04-20T09:22:05;100987.58;;;9.52;100.00
45872;BME280;32333;55.844;-3.210;2023-04-20T09:24:35;100983.61;;;10.20;100.00
45872;BME280;32333;55.844;-3.210;2023-04-20T09:27:14;100980.27;;;8.44;100.00
45872;BME280;32333;55.844;-3.210;2023-04-20T09:29:43;100972.34;;;10.24;100.00
45872;BME280;32333;55.844;-3.210;2023-04-20T09:32:20;100982.62;;;9.72;100.00
45872;BME280;32333;55.844;-3.210;2023-04-20T09:34:48;100974.83;;;9.79;100.00
45872;BME280;32333;55.844;-3.210;2023-04-20T09:37:16;100975.56;;;9.77;100.00
45872;BME280;32333;55.844;-3.210;2023-04-20T09:39:45;100974.10;;;10.68;100.00
45872;BME280;32333;55.844;-3.210;2023-04-20T09:44:37;100969.39;;;10.58;100.00
45872;BME280;32333;55.844;-3.210;2023-04-20T09:47:05;100968.42;;;10.82;100.00
45872;BME280;32333;55.844;-3.210;2023-04-20T09:49:34;100965.66;;;10.29;100.00
45872;BME280;32333;55.844;-3.210;2023-04-20T09:52:03;100963.50;;;9.83;100.00
45872;BME280;32333;55.844;-3.210;2023-04-20T09:54:30;100956.69;;;10.23;100.00
45872;BME280;32333;55.844;-3.210;2023-04-20T09:56:59;100969.78;;;9.67;100.00
45872;BME280;32333;55.844;-3.210;2023-04-20T09:59:26;100963.86;;;10.45;100.00
45872;BME280;32333;55.844;-3.210;2023-04-20T10:01:54;100968.36;;;9.29;100.00
45872;BME280;32333;55.844;-3.210;2023-04-20T10:04:22;100969.83;;;9.28;100.00
45872;BME280;32333;55.844;-3.210;2023-04-20T10:06:53;100962.71;;;9.73;100.00
45872;BME280;32333;55.844;-3.210;2023-04-20T10:09:23;100959.94;;;9.12;100.00
45872;BME280;32333;55.844;-3.210;2023-04-20T10:11:51;100958.53;;;8.92;100.00
45872;BME280;32333;55.844;-3.210;2023-04-20T10:14:35;100951.84;;;8.32;100.00
45872;BME280;32333;55.844;-3.210;2023-04-20T10:17:05;100953.64;;;9.02;100.00
45872;BME280;32333;55.844;-3.210;2023-04-20T10:19:38;100957.71;;;8.31;100.00
45872;BME280;32333;55.844;-3.210;2023-04-20T10:22:07;100954.75;;;9.22;100.00
45872;BME280;32333;55.844;-3.210;2023-04-20T10:24:35;100957.93;;;8.69;100.00
45872;BME280;32333;55.844;-3.210;2023-04-20T10:27:04;100953.35;;;9.56;100.00
45872;BME280;32333;55.844;-3.210;2023-04-20T10:29:42;100945.05;;;9.27;100.00
45872;BME280;32333;55.844;-3.210;2023-04-20T10:32:20;100948.00;;;9.93;100.00
45872;BME280;32333;55.844;-3.210;2023-04-20T10:34:59;100941.18;;;9.19;100.00
45872;BME280;32333;55.844;-3.210;2023-04-20T10:37:27;100946.73;;;9.14;100.00
45872;BME280;32333;55.844;-3.210;2023-04-20T10:39:54;100941.88;;;9.70;100.00
45872;BME280;32333;55.844;-3.210;2023-04-20T10:44:46;100942.66;;;9.70;100.00
45872;BME280;32333;55.844;-3.210;2023-04-20T10:47:13;100939.87;;;9.84;100.00
45872;BME280;32333;55.844;-3.210;2023-04-20T10:49:41;100939.02;;;10.00;100.00
45872;BME280;32333;55.844;-3.210;2023-04-20T10:52:09;100935.03;;;9.91;100.00
45872;BME280;32333;55.844;-3.210;2023-04-20T10:54:38;100935.25;;;9.48;100.00
45872;BME280;32333;55.844;-3.210;2023-04-20T10:57:05;100935.06;;;9.29;100.00
45872;BME280;32333;55.844;-3.210;2023-04-20T10:59:33;100930.32;;;9.36;100.00
45872;BME280;32333;55.844;-3.210;2023-04-20T11:02:05;100927.21;;;9.81;100.00
45872;BME280;32333;55.844;-3.210;2023-04-20T11:04:33;100934.10;;;10.83;100.00
45872;BME280;32333;55.844;-3.210;2023-04-20T11:07:06;100919.85;;;9.46;100.00
45872;BME280;32333;55.844;-3.210;2023-04-20T11:09:35;100925.65;;;10.12;100.00
45872;BME280;32333;55.844;-3.210;2023-04-20T11:14:38;100914.59;;;9.86;100.00
45872;BME280;32333;55.844;-3.210;2023-04-20T11:17:06;100908.20;;;9.48;100.00
45872;BME280;32333;55.844;-3.210;2023-04-20T11:19:35;100908.40;;;10.25;100.00
45872;BME280;32333;55.844;-3.210;2023-04-20T11:22:03;100910.64;;;9.90;100.00
45872;BME280;32333;55.844;-3.210;2023-04-20T11:24:32;100909.61;;;9.57;100.00
45872;BME280;32333;55.844;-3.210;2023-04-20T11:27:02;100907.42;;;8.77;100.00
45872;BME280;32333;55.844;-3.210;2023-04-20T11:29:31;100900.89;;;8.94;100.00
45872;BME280;32333;55.844;-3.210;2023-04-20T11:32:00;100895.10;;;8.92;100.00
45872;BME280;32333;55.844;-3.210;2023-04-20T11:34:28;100894.78;;;9.69;100.00
45872;BME280;32333;55.844;-3.210;2023-04-20T11:37:02;100888.52;;;10.15;100.00
45872;BME280;32333;55.844;-3.210;2023-04-20T11:39:31;100888.70;;;9.82;100.00
45872;BME280;32333;55.844;-3.210;2023-04-20T11:41:58;100892.94;;;10.18;100.00
45872;BME280;32333;55.844;-3.210;2023-04-20T11:44:35;100885.70;;;10.71;100.00
45872;BME280;32333;55.844;-3.210;2023-04-20T11:47:03;100883.70;;;10.22;100.00
45872;BME280;32333;55.844;-3.210;2023-04-20T11:49:32;100881.89;;;9.29;100.00
45872;BME280;32333;55.844;-3.210;2023-04-20T11:51:59;100895.97;;;9.10;100.00
45872;BME280;32333;55.844;-3.210;2023-04-20T11:54:26;100875.19;;;9.33;100.00
45872;BME280;32333;55.844;-3.210;2023-04-20T11:56:55;100878.77;;;9.56;100.00
45872;BME280;32333;55.844;-3.210;2023-04-20T11:59:22;100878.01;;;9.37;100.00
45872;BME280;32333;55.844;-3.210;2023-04-20T12:01:49;100873.59;;;8.51;100.00
45872;BME280;32333;55.844;-3.210;2023-04-20T12:04:17;100878.42;;;9.62;100.00
45872;BME280;32333;55.844;-3.210;2023-04-20T12:06:44;100868.53;;;10.02;100.00
45872;BME280;32333;55.844;-3.210;2023-04-20T12:09:13;100864.31;;;9.13;100.00
45872;BME280;32333;55.844;-3.210;2023-04-20T12:11:40;100864.79;;;9.50;100.00
45872;BME280;32333;55.844;-3.210;2023-04-20T12:14:36;100859.08;;;8.81;100.00
45872;BME280;32333;55.844;-3.210;2023-04-20T12:17:04;100861.43;;;8.37;100.00
45872;BME280;32333;55.844;-3.210;2023-04-20T12:19:31;100863.88;;;7.54;100.00
45872;BME280;32333;55.844;-3.210;2023-04-20T12:22:00;100866.16;;;8.57;100.00
45872;BME280;32333;55.844;-3.210;2023-04-20T12:24:28;100864.55;;;8.95;100.00
45872;BME280;32333;55.844;-3.210;2023-04-20T12:26:55;100869.56;;;8.51;100.00
45872;BME280;32333;55.844;-3.210;2023-04-20T12:29:23;100864.92;;;8.08;100.00
45872;BME280;32333;55.844;-3.210;2023-04-20T12:31:50;100857.07;;;7.92;100.00
45872;BME280;32333;55.844;-3.210;2023-04-20T12:34:18;100868.40;;;8.23;100.00
45872;BME280;32333;55.844;-3.210;2023-04-20T12:36:45;100874.03;;;8.31;100.00
45872;BME280;32333;55.844;-3.210;2023-04-20T12:39:12;100869.58;;;8.82;100.00
45872;BME280;32333;55.844;-3.210;2023-04-20T12:41:41;100868.16;;;8.46;100.00
45872;BME280;32333;55.844;-3.210;2023-04-20T12:44:35;100869.36;;;8.49;100.00
45872;BME280;32333;55.844;-3.210;2023-04-20T12:47:02;100867.18;;;8.69;100.00
45872;BME280;32333;55.844;-3.210;2023-04-20T12:49:29;100865.93;;;8.86;100.00
45872;BME280;32333;55.844;-3.210;2023-04-20T12:51:58;100864.77;;;7.96;100.00
45872;BME280;32333;55.844;-3.210;2023-04-20T12:54:25;100865.89;;;7.84;100.00
45872;BME280;32333;55.844;-3.210;2023-04-20T12:56:52;100871.84;;;8.56;100.00
45872;BME280;32333;55.844;-3.210;2023-04-20T12:59:20;100857.95;;;8.64;100.00
45872;BME280;32333;55.844;-3.210;2023-04-20T13:01:47;100861.45;;;8.43;100.00